sensor_id;sensor_type;location;lat;lon;timestamp;P1;durP1;ratioP1;P2;durP2;ratioP2
7961;SDS011;4026;43.652;24.906;2023-03-14T00:01:20;0.53;;;0.40;;
7961;SDS011;4026;43.652;24.906;2023-03-14T00:03:47;0.30;;;0.30;;
7961;SDS011;4026;43.652;24.906;2023-03-14T00:06:14;0.50;;;0.50;;
7961;SDS011;4026;43.652;24.906;2023-03-14T00:08:44;0.77;;;0.70;;
7961;SDS011;4026;43.652;24.906;2023-03-14T00:11:12;0.43;;;0.43;;
7961;SDS011;4026;43.652;24.906;2023-03-14T00:13:41;0.83;;;0.70;;
7961;SDS011;4026;43.652;24.906;2023-03-14T00:16:08;0.90;;;0.83;;
7961;SDS011;4026;43.652;24.906;2023-03-14T00:18:37;0.60;;;0.60;;
7961;SDS011;4026;43.652;24.906;2023-03-14T00:21:05;0.67;;;0.60;;
7961;SDS011;4026;43.652;24.906;2023-03-14T00:23:34;0.60;;;0.60;;
7961;SDS011;4026;43.652;24.906;2023-03-14T00:26:06;0.70;;;0.70;;
7961;SDS011;4026;43.652;24.906;2023-03-14T00:28:34;0.40;;;0.40;;
7961;SDS011;4026;43.652;24.906;2023-03-14T00:31:02;0.47;;;0.37;;
7961;SDS011;4026;43.652;24.906;2023-03-14T00:33:29;0.50;;;0.50;;
7961;SDS011;4026;43.652;24.906;2023-03-14T00:35:56;0.30;;;0.30;;
7961;SDS011;4026;43.652;24.906;2023-03-14T00:38:24;0.37;;;0.33;;
7961;SDS011;4026;43.652;24.906;2023-03-14T00:40:52;0.60;;;0.60;;
7961;SDS011;4026;43.652;24.906;2023-03-14T00:43:20;0.50;;;0.50;;
7961;SDS011;4026;43.652;24.906;2023-03-14T00:45:48;0.60;;;0.60;;
7961;SDS011;4026;43.652;24.906;2023-03-14T00:48:15;0.43;;;0.43;;
7961;SDS011;4026;43.652;24.906;2023-03-14T00:50:42;0.43;;;0.43;;
7961;SDS011;4026;43.652;24.906;2023-03-14T00:53:09;0.67;;;0.67;;
7961;SDS011;4026;43.652;24.906;2023-03-14T00:55:36;0.60;;;0.60;;
7961;SDS011;4026;43.652;24.906;2023-03-14T00:58:03;0.93;;;0.40;;
7961;SDS011;4026;43.652;24.906;2023-03-14T01:00:32;0.40;;;0.40;;
7961;SDS011;4026;43.652;24.906;2023-03-14T01:02:59;0.30;;;0.30;;
7961;SDS011;4026;43.652;24.906;2023-03-14T01:05:26;1.03;;;0.90;;
7961;SDS011;4026;43.652;24.906;2023-03-14T01:07:53;1.03;;;0.93;;
7961;SDS011;4026;43.652;24.906;2023-03-14T01:10:20;0.70;;;0.70;;
7961;SDS011;4026;43.652;24.906;2023-03-14T01:12:47;0.30;;;0.30;;
7961;SDS011;4026;43.652;24.906;2023-03-14T01:15:14;0.67;;;0.40;;
7961;SDS011;4026;43.652;24.906;2023-03-14T01:17:43;0.73;;;0.73;;
7961;SDS011;4026;43.652;24.906;2023-03-14T01:20:10;1.07;;;0.70;;
7961;SDS011;4026;43.652;24.906;2023-03-14T01:22:40;0.60;;;0.50;;
7961;SDS011;4026;43.652;24.906;2023-03-14T01:25:08;0.23;;;0.23;;
7961;SDS011;4026;43.652;24.906;2023-03-14T01:27:36;0.70;;;0.67;;
7961;SDS011;4026;43.652;24.906;2023-03-14T01:30:03;0.27;;;0.27;;
7961;SDS011;4026;43.652;24.906;2023-03-14T01:32:33;0.43;;;0.43;;
7961;SDS011;4026;43.652;24.906;2023-03-14T01:35:01;0.10;;;0.10;;
7961;SDS011;4026;43.652;24.906;2023-03-14T01:37:28;0.57;;;0.57;;
7961;SDS011;4026;43.652;24.906;2023-03-14T01:39:55;0.63;;;0.50;;
7961;SDS011;4026;43.652;24.906;2023-03-14T01:42:22;0.30;;;0.30;;
7961;SDS011;4026;43.652;24.906;2023-03-14T01:44:49;0.40;;;0.40;;
7961;SDS011;4026;43.652;24.906;2023-03-14T01:47:18;0.40;;;0.40;;
7961;SDS011;4026;43.652;24.906;2023-03-14T01:49:45;0.40;;;0.37;;
7961;SDS011;4026;43.652;24.906;2023-03-14T01:52:17;0.90;;;0.80;;
7961;SDS011;4026;43.652;24.906;2023-03-14T01:54:46;0.20;;;0.20;;
7961;SDS011;4026;43.652;24.906;2023-03-14T01:57:17;0.20;;;0.20;;
7961;SDS011;4026;43.652;24.906;2023-03-14T01:59:50;2.63;;;0.67;;
7961;SDS011;4026;43.652;24.906;2023-03-14T02:02:19;0.30;;;0.30;;
7961;SDS011;4026;43.652;24.906;2023-03-14T02:04:48;0.37;;;0.37;;
7961;SDS011;4026;43.652;24.906;2023-03-14T02:07:17;0.37;;;0.37;;
7961;SDS011;4026;43.652;24.906;2023-03-14T02:09:47;0.50;;;0.50;;
7961;SDS011;4026;43.652;24.906;2023-03-14T02:12:15;0.37;;;0.37;;
7961;SDS011;4026;43.652;24.906;2023-03-14T02:14:44;0.30;;;0.30;;
7961;SDS011;4026;43.652;24.906;2023-03-14T02:17:13;0.50;;;0.37;;
7961;SDS011;4026;43.652;24.906;2023-03-14T02:19:46;0.10;;;0.10;;
7961;SDS011;4026;43.652;24.906;2023-03-14T02:22:21;0.67;;;0.30;;
7961;SDS011;4026;43.652;24.906;2023-03-14T02:24:49;0.67;;;0.37;;
7961;SDS011;4026;43.652;24.906;2023-03-14T02:27:24;0.20;;;0.20;;
7961;SDS011;4026;43.652;24.906;2023-03-14T02:29:53;0.57;;;0.57;;
7961;SDS011;4026;43.652;24.906;2023-03-14T02:32:23;0.20;;;0.20;;
7961;SDS011;4026;43.652;24.906;2023-03-14T02:34:53;0.97;;;0.30;;
7961;SDS011;4026;43.652;24.906;2023-03-14T02:37:24;0.40;;;0.40;;
7961;SDS011;4026;43.652;24.906;2023-03-14T02:39:56;0.20;;;0.20;;
7961;SDS011;4026;43.652;24.906;2023-03-14T02:42:25;0.80;;;0.30;;
7961;SDS011;4026;43.652;24.906;2023-03-14T02:44:52;0.60;;;0.60;;
7961;SDS011;4026;43.652;24.906;2023-03-14T02:47:22;2.60;;;0.77;;
7961;SDS011;4026;43.652;24.906;2023-03-14T02:49:56;0.40;;;0.30;;
7961;SDS011;4026;43.652;24.906;2023-03-14T02:52:27;2.23;;;0.40;;
7961;SDS011;4026;43.652;24.906;2023-03-14T02:54:54;0.50;;;0.50;;
7961;SDS011;4026;43.652;24.906;2023-03-14T02:57:21;0.37;;;0.37;;
7961;SDS011;4026;43.652;24.906;2023-03-14T02:59:49;0.63;;;0.50;;
7961;SDS011;4026;43.652;24.906;2023-03-14T03:02:16;0.50;;;0.50;;
7961;SDS011;4026;43.652;24.906;2023-03-14T03:04:43;1.23;;;0.40;;
7961;SDS011;4026;43.652;24.906;2023-03-14T03:07:10;0.20;;;0.20;;
7961;SDS011;4026;43.652;24.906;2023-03-14T03:09:36;0.30;;;0.30;;
7961;SDS011;4026;43.652;24.906;2023-03-14T03:12:03;0.20;;;0.20;;
7961;SDS011;4026;43.652;24.906;2023-03-14T03:14:30;0.40;;;0.40;;
7961;SDS011;4026;43.652;24.906;2023-03-14T03:16:59;0.50;;;0.50;;
7961;SDS011;4026;43.652;24.906;2023-03-14T03:19:25;0.10;;;0.10;;
7961;SDS011;4026;43.652;24.906;2023-03-14T03:21:52;0.33;;;0.33;;
7961;SDS011;4026;43.652;24.906;2023-03-14T03:24:19;1.17;;;0.67;;
7961;SDS011;4026;43.652;24.906;2023-03-14T03:26:46;0.20;;;0.20;;
7961;SDS011;4026;43.652;24.906;2023-03-14T03:29:13;0.20;;;0.20;;
7961;SDS011;4026;43.652;24.906;2023-03-14T03:31:39;0.63;;;0.60;;
7961;SDS011;4026;43.652;24.906;2023-03-14T03:34:08;0.40;;;0.40;;
7961;SDS011;4026;43.652;24.906;2023-03-14T03:36:35;0.10;;;0.10;;
7961;SDS011;4026;43.652;24.906;2023-03-14T03:39:01;0.30;;;0.30;;
7961;SDS011;4026;43.652;24.906;2023-03-14T03:41:29;0.23;;;0.23;;
7961;SDS011;4026;43.652;24.906;2023-03-14T03:43:55;0.20;;;0.20;;
7961;SDS011;4026;43.652;24.906;2023-03-14T03:46:23;0.37;;;0.37;;
7961;SDS011;4026;43.652;24.906;2023-03-14T03:48:53;0.37;;;0.30;;
7961;SDS011;4026;43.652;24.906;2023-03-14T03:51:22;0.57;;;0.57;;
7961;SDS011;4026;43.652;24.906;2023-03-14T03:53:49;0.73;;;0.70;;
7961;SDS011;4026;43.652;24.906;2023-03-14T03:56:16;0.17;;;0.17;;
7961;SDS011;4026;43.652;24.906;2023-03-14T03:58:43;1.70;;;0.40;;
7961;SDS011;4026;43.652;24.906;2023-03-14T04:01:10;0.27;;;0.27;;
7961;SDS011;4026;43.652;24.906;2023-03-14T04:03:37;0.40;;;0.40;;
7961;SDS011;4026;43.652;24.906;2023-03-14T04:06:05;0.17;;;0.17;;
7961;SDS011;4026;43.652;24.906;2023-03-14T04:08:34;0.40;;;0.40;;
7961;SDS011;4026;43.652;24.906;2023-03-14T04:11:02;0.30;;;0.30;;
7961;SDS011;4026;43.652;24.906;2023-03-14T04:13:29;0.30;;;0.30;;
7961;SDS011;4026;43.652;24.906;2023-03-14T04:15:56;0.27;;;0.27;;
7961;SDS011;4026;43.652;24.906;2023-03-14T04:18:23;0.30;;;0.30;;
7961;SDS011;4026;43.652;24.906;2023-03-14T04:20:52;0.20;;;0.20;;
7961;SDS011;4026;43.652;24.906;2023-03-14T04:23:19;0.20;;;0.20;;
7961;SDS011;4026;43.652;24.906;2023-03-14T04:25:48;0.20;;;0.20;;
7961;SDS011;4026;43.652;24.906;2023-03-14T04:28:15;0.50;;;0.50;;
7961;SDS011;4026;43.652;24.906;2023-03-14T04:30:42;0.33;;;0.33;;
7961;SDS011;4026;43.652;24.906;2023-03-14T04:33:09;0.90;;;0.87;;
7961;SDS011;4026;43.652;24.906;2023-03-14T04:35:37;0.37;;;0.30;;
7961;SDS011;4026;43.652;24.906;2023-03-14T04:38:04;0.63;;;0.43;;
7961;SDS011;4026;43.652;24.906;2023-03-14T04:40:31;0.43;;;0.43;;
7961;SDS011;4026;43.652;24.906;2023-03-14T04:42:59;0.23;;;0.23;;
7961;SDS011;4026;43.652;24.906;2023-03-14T04:45:26;0.40;;;0.40;;
7961;SDS011;4026;43.652;24.906;2023-03-14T04:47:53;0.30;;;0.30;;
7961;SDS011;4026;43.652;24.906;2023-03-14T04:50:20;0.30;;;0.30;;
7961;SDS011;4026;43.652;24.906;2023-03-14T04:52:46;0.50;;;0.50;;
7961;SDS011;4026;43.652;24.906;2023-03-14T04:55:13;0.77;;;0.47;;
7961;SDS011;4026;43.652;24.906;2023-03-14T04:57:40;0.77;;;0.47;;
7961;SDS011;4026;43.652;24.906;2023-03-14T05:00:09;2.63;;;0.53;;
7961;SDS011;4026;43.652;24.906;2023-03-14T05:02:37;0.10;;;0.10;;
7961;SDS011;4026;43.652;24.906;2023-03-14T05:05:04;0.50;;;0.50;;
7961;SDS011;4026;43.652;24.906;2023-03-14T05:07:32;0.20;;;0.20;;
7961;SDS011;4026;43.652;24.906;2023-03-14T05:09:59;0.87;;;0.53;;
7961;SDS011;4026;43.652;24.906;2023-03-14T05:12:25;0.93;;;0.43;;
7961;SDS011;4026;43.652;24.906;2023-03-14T05:14:52;3.30;;;0.50;;
7961;SDS011;4026;43.652;24.906;2023-03-14T05:17:20;0.17;;;0.17;;
7961;SDS011;4026;43.652;24.906;2023-03-14T05:19:47;1.20;;;0.73;;
7961;SDS011;4026;43.652;24.906;2023-03-14T05:22:14;1.07;;;0.80;;
7961;SDS011;4026;43.652;24.906;2023-03-14T05:24:41;0.30;;;0.30;;
7961;SDS011;4026;43.652;24.906;2023-03-14T05:27:08;0.87;;;0.40;;
7961;SDS011;4026;43.652;24.906;2023-03-14T05:29:35;0.30;;;0.30;;
7961;SDS011;4026;43.652;24.906;2023-03-14T05:32:01;0.10;;;0.10;;
7961;SDS011;4026;43.652;24.906;2023-03-14T05:34:30;0.40;;;0.40;;
7961;SDS011;4026;43.652;24.906;2023-03-14T05:36:57;0.30;;;0.30;;
7961;SDS011;4026;43.652;24.906;2023-03-14T05:39:24;0.37;;;0.37;;
7961;SDS011;4026;43.652;24.906;2023-03-14T05:41:51;0.50;;;0.50;;
7961;SDS011;4026;43.652;24.906;2023-03-14T05:44:19;0.40;;;0.40;;
7961;SDS011;4026;43.652;24.906;2023-03-14T05:46:45;0.50;;;0.50;;
7961;SDS011;4026;43.652;24.906;2023-03-14T05:49:12;0.97;;;0.70;;
7961;SDS011;4026;43.652;24.906;2023-03-14T05:51:40;0.60;;;0.60;;
7961;SDS011;4026;43.652;24.906;2023-03-14T05:54:08;0.53;;;0.40;;
7961;SDS011;4026;43.652;24.906;2023-03-14T05:56:35;0.40;;;0.40;;
7961;SDS011;4026;43.652;24.906;2023-03-14T05:59:02;0.33;;;0.33;;
7961;SDS011;4026;43.652;24.906;2023-03-14T06:01:28;0.87;;;0.83;;
7961;SDS011;4026;43.652;24.906;2023-03-14T06:03:56;0.23;;;0.23;;
7961;SDS011;4026;43.652;24.906;2023-03-14T06:06:23;2.00;;;0.73;;
7961;SDS011;4026;43.652;24.906;2023-03-14T06:08:51;0.40;;;0.40;;
7961;SDS011;4026;43.652;24.906;2023-03-14T06:11:18;0.77;;;0.60;;
7961;SDS011;4026;43.652;24.906;2023-03-14T06:13:45;0.60;;;0.60;;
7961;SDS011;4026;43.652;24.906;2023-03-14T06:16:11;0.63;;;0.63;;
7961;SDS011;4026;43.652;24.906;2023-03-14T06:18:39;0.33;;;0.33;;
7961;SDS011;4026;43.652;24.906;2023-03-14T06:21:06;0.50;;;0.50;;
7961;SDS011;4026;43.652;24.906;2023-03-14T06:23:34;0.80;;;0.80;;
7961;SDS011;4026;43.652;24.906;2023-03-14T06:26:02;0.70;;;0.60;;
7961;SDS011;4026;43.652;24.906;2023-03-14T06:28:29;1.10;;;0.83;;
7961;SDS011;4026;43.652;24.906;2023-03-14T06:30:56;0.97;;;0.53;;
7961;SDS011;4026;43.652;24.906;2023-03-14T06:33:23;1.13;;;0.90;;
7961;SDS011;4026;43.652;24.906;2023-03-14T06:35:49;1.37;;;0.67;;
7961;SDS011;4026;43.652;24.906;2023-03-14T06:38:16;1.13;;;0.83;;
7961;SDS011;4026;43.652;24.906;2023-03-14T06:40:43;0.43;;;0.43;;
7961;SDS011;4026;43.652;24.906;2023-03-14T06:43:11;0.60;;;0.50;;
7961;SDS011;4026;43.652;24.906;2023-03-14T06:45:38;0.73;;;0.73;;
7961;SDS011;4026;43.652;24.906;2023-03-14T06:48:05;0.50;;;0.50;;
7961;SDS011;4026;43.652;24.906;2023-03-14T06:50:33;1.13;;;0.50;;
7961;SDS011;4026;43.652;24.906;2023-03-14T06:53:00;0.70;;;0.70;;
7961;SDS011;4026;43.652;24.906;2023-03-14T06:55:27;1.63;;;1.00;;
7961;SDS011;4026;43.652;24.906;2023-03-14T06:57:54;0.67;;;0.67;;
7961;SDS011;4026;43.652;24.906;2023-03-14T07:00:22;1.20;;;1.07;;
7961;SDS011;4026;43.652;24.906;2023-03-14T07:02:50;2.37;;;1.00;;
7961;SDS011;4026;43.652;24.906;2023-03-14T07:05:16;0.70;;;0.70;;
7961;SDS011;4026;43.652;24.906;2023-03-14T07:07:43;0.77;;;0.77;;
7961;SDS011;4026;43.652;24.906;2023-03-14T07:10:10;1.30;;;0.87;;
7961;SDS011;4026;43.652;24.906;2023-03-14T07:12:37;1.97;;;1.00;;
7961;SDS011;4026;43.652;24.906;2023-03-14T07:15:04;0.73;;;0.73;;
7961;SDS011;4026;43.652;24.906;2023-03-14T07:17:33;1.13;;;1.00;;
7961;SDS011;4026;43.652;24.906;2023-03-14T07:20:00;1.80;;;1.23;;
7961;SDS011;4026;43.652;24.906;2023-03-14T07:22:29;1.07;;;0.97;;
7961;SDS011;4026;43.652;24.906;2023-03-14T07:24:56;1.43;;;1.00;;
7961;SDS011;4026;43.652;24.906;2023-03-14T07:27:23;1.70;;;0.90;;
7961;SDS011;4026;43.652;24.906;2023-03-14T07:29:49;1.00;;;0.90;;
7961;SDS011;4026;43.652;24.906;2023-03-14T07:32:16;0.57;;;0.57;;
7961;SDS011;4026;43.652;24.906;2023-03-14T07:34:44;0.57;;;0.57;;
7961;SDS011;4026;43.652;24.906;2023-03-14T07:37:11;0.73;;;0.73;;
7961;SDS011;4026;43.652;24.906;2023-03-14T07:39:38;0.77;;;0.77;;
7961;SDS011;4026;43.652;24.906;2023-03-14T07:42:05;3.07;;;1.07;;
7961;SDS011;4026;43.652;24.906;2023-03-14T07:44:32;1.07;;;1.03;;
7961;SDS011;4026;43.652;24.906;2023-03-14T07:46:59;1.27;;;0.90;;
7961;SDS011;4026;43.652;24.906;2023-03-14T07:49:26;1.97;;;1.00;;
7961;SDS011;4026;43.652;24.906;2023-03-14T07:51:54;2.27;;;1.37;;
7961;SDS011;4026;43.652;24.906;2023-03-14T07:54:21;1.20;;;1.10;;
7961;SDS011;4026;43.652;24.906;2023-03-14T07:56:48;1.70;;;1.10;;
7961;SDS011;4026;43.652;24.906;2023-03-14T07:59:15;1.07;;;1.00;;
7961;SDS011;4026;43.652;24.906;2023-03-14T08:01:42;2.17;;;0.90;;
7961;SDS011;4026;43.652;24.906;2023-03-14T08:04:09;1.27;;;0.80;;
7961;SDS011;4026;43.652;24.906;2023-03-14T08:06:36;1.17;;;1.07;;
7961;SDS011;4026;43.652;24.906;2023-03-14T08:09:04;1.30;;;1.13;;
7961;SDS011;4026;43.652;24.906;2023-03-14T08:11:31;1.57;;;1.17;;
7961;SDS011;4026;43.652;24.906;2023-03-14T08:13:58;1.83;;;1.33;;
7961;SDS011;4026;43.652;24.906;2023-03-14T08:16:25;2.50;;;1.40;;
7961;SDS011;4026;43.652;24.906;2023-03-14T08:18:52;3.70;;;1.47;;
7961;SDS011;4026;43.652;24.906;2023-03-14T08:21:19;1.77;;;1.40;;
7961;SDS011;4026;43.652;24.906;2023-03-14T08:23:46;2.80;;;1.40;;
7961;SDS011;4026;43.652;24.906;2023-03-14T08:26:14;1.63;;;1.30;;
7961;SDS011;4026;43.652;24.906;2023-03-14T08:28:41;1.97;;;1.40;;
7961;SDS011;4026;43.652;24.906;2023-03-14T08:31:07;2.10;;;1.47;;
7961;SDS011;4026;43.652;24.906;2023-03-14T08:33:34;1.40;;;0.97;;
7961;SDS011;4026;43.652;24.906;2023-03-14T08:36:01;1.97;;;1.30;;
7961;SDS011;4026;43.652;24.906;2023-03-14T08:38:28;1.93;;;1.37;;
7961;SDS011;4026;43.652;24.906;2023-03-14T08:40:55;4.50;;;1.60;;
7961;SDS011;4026;43.652;24.906;2023-03-14T08:43:25;1.60;;;1.50;;
7961;SDS011;4026;43.652;24.906;2023-03-14T08:45:52;1.47;;;1.37;;
7961;SDS011;4026;43.652;24.906;2023-03-14T08:48:19;1.80;;;1.40;;
7961;SDS011;4026;43.652;24.906;2023-03-14T08:50:46;1.47;;;1.00;;
7961;SDS011;4026;43.652;24.906;2023-03-14T08:53:13;2.70;;;1.33;;
7961;SDS011;4026;43.652;24.906;2023-03-14T08:55:40;3.17;;;1.30;;
7961;SDS011;4026;43.652;24.906;2023-03-14T08:58:06;1.77;;;1.30;;
7961;SDS011;4026;43.652;24.906;2023-03-14T09:00:35;3.90;;;1.37;;
7961;SDS011;4026;43.652;24.906;2023-03-14T09:03:02;3.37;;;1.40;;
7961;SDS011;4026;43.652;24.906;2023-03-14T09:05:29;1.20;;;1.10;;
7961;SDS011;4026;43.652;24.906;2023-03-14T09:07:59;1.57;;;1.20;;
7961;SDS011;4026;43.652;24.906;2023-03-14T09:10:25;1.20;;;1.10;;
7961;SDS011;4026;43.652;24.906;2023-03-14T09:12:52;5.40;;;1.70;;
7961;SDS011;4026;43.652;24.906;2023-03-14T09:15:19;2.00;;;1.33;;
7961;SDS011;4026;43.652;24.906;2023-03-14T09:17:47;1.63;;;1.27;;
7961;SDS011;4026;43.652;24.906;2023-03-14T09:20:14;1.90;;;1.40;;
7961;SDS011;4026;43.652;24.906;2023-03-14T09:22:42;2.07;;;1.43;;
7961;SDS011;4026;43.652;24.906;2023-03-14T09:25:09;1.77;;;1.50;;
7961;SDS011;4026;43.652;24.906;2023-03-14T09:27:36;3.00;;;1.13;;
7961;SDS011;4026;43.652;24.906;2023-03-14T09:30:03;2.03;;;1.47;;
7961;SDS011;4026;43.652;24.906;2023-03-14T09:32:31;1.57;;;1.30;;
7961;SDS011;4026;43.652;24.906;2023-03-14T09:34:59;1.03;;;0.97;;
7961;SDS011;4026;43.652;24.906;2023-03-14T09:37:26;6.93;;;1.40;;
7961;SDS011;4026;43.652;24.906;2023-03-14T09:39:53;2.33;;;1.30;;
7961;SDS011;4026;43.652;24.906;2023-03-14T09:42:21;2.97;;;1.60;;
7961;SDS011;4026;43.652;24.906;2023-03-14T09:44:53;2.17;;;1.43;;
7961;SDS011;4026;43.652;24.906;2023-03-14T09:47:22;1.60;;;1.27;;
7961;SDS011;4026;43.652;24.906;2023-03-14T09:49:50;1.90;;;1.30;;
7961;SDS011;4026;43.652;24.906;2023-03-14T09:52:19;2.33;;;1.40;;
7961;SDS011;4026;43.652;24.906;2023-03-14T09:54:50;2.10;;;1.33;;
7961;SDS011;4026;43.652;24.906;2023-03-14T09:57:19;1.40;;;0.83;;
7961;SDS011;4026;43.652;24.906;2023-03-14T09:59:49;1.57;;;1.20;;
7961;SDS011;4026;43.652;24.906;2023-03-14T10:02:19;1.37;;;1.17;;
7961;SDS011;4026;43.652;24.906;2023-03-14T10:04:47;1.33;;;1.00;;
7961;SDS011;4026;43.652;24.906;2023-03-14T10:07:16;1.67;;;1.10;;
7961;SDS011;4026;43.652;24.906;2023-03-14T10:09:48;1.30;;;1.20;;
7961;SDS011;4026;43.652;24.906;2023-03-14T10:12:16;1.93;;;1.30;;
7961;SDS011;4026;43.652;24.906;2023-03-14T10:14:45;1.70;;;1.30;;
7961;SDS011;4026;43.652;24.906;2023-03-14T10:17:14;2.63;;;1.30;;
7961;SDS011;4026;43.652;24.906;2023-03-14T10:19:53;2.40;;;1.20;;
7961;SDS011;4026;43.652;24.906;2023-03-14T10:22:22;1.30;;;1.00;;
7961;SDS011;4026;43.652;24.906;2023-03-14T10:24:52;2.67;;;1.03;;
7961;SDS011;4026;43.652;24.906;2023-03-14T10:27:22;1.37;;;1.10;;
7961;SDS011;4026;43.652;24.906;2023-03-14T10:29:55;1.23;;;1.00;;
7961;SDS011;4026;43.652;24.906;2023-03-14T10:32:27;2.60;;;1.03;;
7961;SDS011;4026;43.652;24.906;2023-03-14T10:35:04;1.73;;;1.33;;
7961;SDS011;4026;43.652;24.906;2023-03-14T10:37:51;2.40;;;1.40;;
7961;SDS011;4026;43.652;24.906;2023-03-14T10:40:22;1.83;;;1.40;;
7961;SDS011;4026;43.652;24.906;2023-03-14T10:42:53;1.80;;;1.10;;
7961;SDS011;4026;43.652;24.906;2023-03-14T10:48:15;1.60;;;1.20;;
7961;SDS011;4026;43.652;24.906;2023-03-14T10:50:49;2.80;;;1.40;;
7961;SDS011;4026;43.652;24.906;2023-03-14T10:53:22;1.03;;;0.90;;
7961;SDS011;4026;43.652;24.906;2023-03-14T10:55:49;2.07;;;1.20;;
7961;SDS011;4026;43.652;24.906;2023-03-14T10:58:23;1.17;;;1.00;;
7961;SDS011;4026;43.652;24.906;2023-03-14T11:00:53;3.63;;;1.27;;
7961;SDS011;4026;43.652;24.906;2023-03-14T11:03:28;1.63;;;1.30;;
7961;SDS011;4026;43.652;24.906;2023-03-14T11:05:59;1.70;;;1.20;;
7961;SDS011;4026;43.652;24.906;2023-03-14T11:08:31;1.70;;;1.40;;
7961;SDS011;4026;43.652;24.906;2023-03-14T11:11:07;1.37;;;1.20;;
7961;SDS011;4026;43.652;24.906;2023-03-14T11:13:42;1.63;;;1.03;;
7961;SDS011;4026;43.652;24.906;2023-03-14T11:16:20;1.50;;;1.07;;
7961;SDS011;4026;43.652;24.906;2023-03-14T11:21:46;1.37;;;0.93;;
7961;SDS011;4026;43.652;24.906;2023-03-14T11:24:27;2.20;;;1.20;;
7961;SDS011;4026;43.652;24.906;2023-03-14T11:27:06;1.07;;;0.97;;
7961;SDS011;4026;43.652;24.906;2023-03-14T11:29:43;0.97;;;0.87;;
7961;SDS011;4026;43.652;24.906;2023-03-14T11:32:22;1.70;;;1.20;;
7961;SDS011;4026;43.652;24.906;2023-03-14T11:34:55;0.77;;;0.73;;
7961;SDS011;4026;43.652;24.906;2023-03-14T11:37:26;1.60;;;1.30;;
7961;SDS011;4026;43.652;24.906;2023-03-14T11:40:02;1.57;;;1.10;;
7961;SDS011;4026;43.652;24.906;2023-03-14T11:42:34;2.03;;;1.13;;
7961;SDS011;4026;43.652;24.906;2023-03-14T11:45:02;1.90;;;1.23;;
7961;SDS011;4026;43.652;24.906;2023-03-14T11:47:31;1.83;;;1.20;;
7961;SDS011;4026;43.652;24.906;2023-03-14T11:50:04;1.43;;;1.10;;
7961;SDS011;4026;43.652;24.906;2023-03-14T11:52:41;1.60;;;1.50;;
7961;SDS011;4026;43.652;24.906;2023-03-14T11:55:17;1.57;;;1.00;;
7961;SDS011;4026;43.652;24.906;2023-03-14T11:57:47;1.30;;;1.00;;
7961;SDS011;4026;43.652;24.906;2023-03-14T12:00:18;1.30;;;0.93;;
7961;SDS011;4026;43.652;24.906;2023-03-14T12:02:48;1.67;;;1.23;;
7961;SDS011;4026;43.652;24.906;2023-03-14T12:05:27;0.90;;;0.80;;
7961;SDS011;4026;43.652;24.906;2023-03-14T12:11:08;1.70;;;1.20;;
7961;SDS011;4026;43.652;24.906;2023-03-14T12:13:39;1.83;;;1.03;;
7961;SDS011;4026;43.652;24.906;2023-03-14T12:16:19;1.10;;;1.00;;
7961;SDS011;4026;43.652;24.906;2023-03-14T12:21:58;1.57;;;1.07;;
7961;SDS011;4026;43.652;24.906;2023-03-14T12:24:32;1.70;;;1.07;;
7961;SDS011;4026;43.652;24.906;2023-03-14T12:27:04;1.27;;;1.03;;
7961;SDS011;4026;43.652;24.906;2023-03-14T12:29:34;1.20;;;0.93;;
7961;SDS011;4026;43.652;24.906;2023-03-14T12:32:25;2.23;;;1.13;;
7961;SDS011;4026;43.652;24.906;2023-03-14T12:34:52;2.13;;;1.43;;
7961;SDS011;4026;43.652;24.906;2023-03-14T12:37:21;1.97;;;1.20;;
7961;SDS011;4026;43.652;24.906;2023-03-14T12:40:02;1.47;;;1.20;;
7961;SDS011;4026;43.652;24.906;2023-03-14T12:42:50;1.00;;;0.83;;
7961;SDS011;4026;43.652;24.906;2023-03-14T12:45:24;1.17;;;1.07;;
7961;SDS011;4026;43.652;24.906;2023-03-14T12:48:10;1.27;;;1.17;;
7961;SDS011;4026;43.652;24.906;2023-03-14T12:50:45;1.07;;;0.97;;
7961;SDS011;4026;43.652;24.906;2023-03-14T12:53:34;1.17;;;0.93;;
7961;SDS011;4026;43.652;24.906;2023-03-14T12:56:25;1.10;;;1.00;;
7961;SDS011;4026;43.652;24.906;2023-03-14T12:58:59;1.83;;;1.07;;
7961;SDS011;4026;43.652;24.906;2023-03-14T13:01:53;1.53;;;1.20;;
7961;SDS011;4026;43.652;24.906;2023-03-14T13:04:26;1.73;;;1.10;;
7961;SDS011;4026;43.652;24.906;2023-03-14T13:06:55;1.30;;;1.20;;
7961;SDS011;4026;43.652;24.906;2023-03-14T13:12:18;1.23;;;1.10;;
7961;SDS011;4026;43.652;24.906;2023-03-14T13:14:54;2.07;;;1.27;;
7961;SDS011;4026;43.652;24.906;2023-03-14T13:17:25;1.60;;;1.20;;
7961;SDS011;4026;43.652;24.906;2023-03-14T13:19:55;2.27;;;1.27;;
7961;SDS011;4026;43.652;24.906;2023-03-14T13:22:26;1.63;;;1.13;;
7961;SDS011;4026;43.652;24.906;2023-03-14T13:24:58;1.17;;;0.97;;
7961;SDS011;4026;43.652;24.906;2023-03-14T13:27:26;1.73;;;1.00;;
7961;SDS011;4026;43.652;24.906;2023-03-14T13:29:58;1.23;;;0.97;;
7961;SDS011;4026;43.652;24.906;2023-03-14T13:32:26;1.67;;;1.10;;
7961;SDS011;4026;43.652;24.906;2023-03-14T13:34:55;1.13;;;1.03;;
7961;SDS011;4026;43.652;24.906;2023-03-14T13:37:23;1.40;;;1.00;;
7961;SDS011;4026;43.652;24.906;2023-03-14T13:39:51;1.20;;;1.03;;
7961;SDS011;4026;43.652;24.906;2023-03-14T13:42:20;1.73;;;0.80;;
7961;SDS011;4026;43.652;24.906;2023-03-14T13:44:50;1.97;;;0.90;;
7961;SDS011;4026;43.652;24.906;2023-03-14T13:47:21;1.10;;;1.00;;
7961;SDS011;4026;43.652;24.906;2023-03-14T13:49:49;1.50;;;0.87;;
7961;SDS011;4026;43.652;24.906;2023-03-14T13:52:21;1.17;;;0.87;;
7961;SDS011;4026;43.652;24.906;2023-03-14T13:54:52;1.17;;;1.00;;
7961;SDS011;4026;43.652;24.906;2023-03-14T13:57:20;1.10;;;0.90;;
7961;SDS011;4026;43.652;24.906;2023-03-14T13:59:57;1.73;;;1.40;;
7961;SDS011;4026;43.652;24.906;2023-03-14T14:02:27;1.30;;;0.97;;
7961;SDS011;4026;43.652;24.906;2023-03-14T14:04:54;1.13;;;1.00;;
7961;SDS011;4026;43.652;24.906;2023-03-14T14:07:22;1.20;;;0.93;;
7961;SDS011;4026;43.652;24.906;2023-03-14T14:09:51;1.10;;;0.90;;
7961;SDS011;4026;43.652;24.906;2023-03-14T14:12:20;2.03;;;1.10;;
7961;SDS011;4026;43.652;24.906;2023-03-14T14:14:54;1.40;;;0.93;;
7961;SDS011;4026;43.652;24.906;2023-03-14T14:17:24;1.00;;;0.90;;
7961;SDS011;4026;43.652;24.906;2023-03-14T14:19:57;3.37;;;0.97;;
7961;SDS011;4026;43.652;24.906;2023-03-14T14:22:25;1.53;;;1.03;;
7961;SDS011;4026;43.652;24.906;2023-03-14T14:24:53;1.30;;;0.87;;
7961;SDS011;4026;43.652;24.906;2023-03-14T14:27:24;1.43;;;0.63;;
7961;SDS011;4026;43.652;24.906;2023-03-14T14:29:57;0.80;;;0.70;;
7961;SDS011;4026;43.652;24.906;2023-03-14T14:32:26;0.60;;;0.60;;
7961;SDS011;4026;43.652;24.906;2023-03-14T14:35:00;0.90;;;0.90;;
7961;SDS011;4026;43.652;24.906;2023-03-14T14:37:29;1.50;;;0.77;;
7961;SDS011;4026;43.652;24.906;2023-03-14T14:39:58;1.57;;;1.10;;
7961;SDS011;4026;43.652;24.906;2023-03-14T14:42:27;1.50;;;1.00;;
7961;SDS011;4026;43.652;24.906;2023-03-14T14:44:57;2.20;;;0.90;;
7961;SDS011;4026;43.652;24.906;2023-03-14T14:47:25;4.10;;;1.20;;
7961;SDS011;4026;43.652;24.906;2023-03-14T14:49:58;1.37;;;1.00;;
7961;SDS011;4026;43.652;24.906;2023-03-14T14:52:31;1.30;;;1.03;;
7961;SDS011;4026;43.652;24.906;2023-03-14T14:55:01;0.73;;;0.73;;
7961;SDS011;4026;43.652;24.906;2023-03-14T14:57:30;3.30;;;1.40;;
7961;SDS011;4026;43.652;24.906;2023-03-14T15:00:02;1.70;;;0.70;;
7961;SDS011;4026;43.652;24.906;2023-03-14T15:02:35;1.20;;;0.70;;
7961;SDS011;4026;43.652;24.906;2023-03-14T15:05:11;2.60;;;1.00;;
7961;SDS011;4026;43.652;24.906;2023-03-14T15:07:39;2.20;;;0.83;;
7961;SDS011;4026;43.652;24.906;2023-03-14T15:10:06;1.13;;;0.90;;
7961;SDS011;4026;43.652;24.906;2023-03-14T15:12:36;1.73;;;0.97;;
7961;SDS011;4026;43.652;24.906;2023-03-14T15:15:03;1.10;;;0.80;;
7961;SDS011;4026;43.652;24.906;2023-03-14T15:17:30;2.87;;;0.80;;
7961;SDS011;4026;43.652;24.906;2023-03-14T15:19:59;1.40;;;0.83;;
7961;SDS011;4026;43.652;24.906;2023-03-14T15:22:26;2.13;;;1.10;;
7961;SDS011;4026;43.652;24.906;2023-03-14T15:24:52;3.53;;;0.90;;
7961;SDS011;4026;43.652;24.906;2023-03-14T15:27:19;0.93;;;0.73;;